Seattle, WA

7:42 PM PDT on October 22, 2014 (GMT -0700)
Boeing Field-King County International | Change Station
CLOSE
Current Station
Airport
Location: Seattle Boeing,
Elevation: 16 ft
Nearby Weather Stations

Elev 16 ft 47.53 °N, 122.30 °W | Updated 49 minutes ago

Rain
Rain
57 °F
Feels Like 57 °F
N
14
Wind Variable Wind from SE

Today
High -- | Low -- °F
--% Chance of Precip.
Yesterday
High -- | Low -- °F
Precip. -- in
7:38 AM 6:08 PM
Waning Crescent, 1% visible
Pressure 29.56 in
Visibility 10.0 miles
Clouds Mostly Cloudy 2300 ft
Overcast 7500 ft
Dew Point 52 °F
Humidity 82%
Rainfall 1.35 in
Snow Depth Not available.
UV 0 out of 12
Pollen .40 out of 12
Air Quality Not available.
Flu Activity Sporadic
METAR KBFI 230153Z 14012KT 10SM -RA BKN023 OVC075 14/11 A2956

More Conditions Fewer Conditions

Pressure 29.56 in
Visibility 10.0 miles
Clouds Mostly Cloudy 2300 ft
Overcast 7500 ft
Dew Point 52 °F
Humidity 82%
Rainfall 1.35 in
Snow Depth Not available.
UV 0 out of 12
Pollen .40 out of 12
Air Quality Not available.
Flu Activity Sporadic
METAR KBFI 230153Z 14012KT 10SM -RA BKN023 OVC075 14/11 A2956

More Conditions Fewer Conditions

10-Day Weather Forecast

Almanac

Astronomy

Oct. 22, 2014 Rise Set
Actual Time 7:38 AM PDT 6:08 PM PDT
Civil Twilight 7:07 AM PDT 6:39 PM PDT
Nautical Twilight 6:31 AM PDT 7:15 PM PDT
Astronomical Twilight 5:55 AM PDT 7:51 PM PDT
Moon 6:20 AM PDT (10/22) 5:41 PM PDT (10/22)
Length of Visible Light 11h 32m
Length of Day
10h 29m
Tomorrow will be 3m 15s shorter.
Waning Crescent, 1% of the Moon is Illuminated
Today
Waning Crescent
Oct 23
New
Oct 30
First Quarter
Nov 6
Full
Nov 14
Last Quarter

Today's Extremes

State Highs State Lows

Community

WunderPhotos

Upload Photos

1,764,115 photos uploaded!

Nearby

Air Quality

  Air Quality AQ Index Pollutant
Wednesday Good
PM2.5
Thursday Good
PM2.5
Friday Good
PM2.5
Saturday Good
PM2.5
Sunday Good
PM2.5
Monday Good
PM2.5

Snow Depth

Station Depth Elevation
Alpine Meadows 0 in 3500 ft
Dungeness 0 in 4100 ft
Rex River 0 in 4000 ft
Mount Gardner 0 in 3000 ft
Burnt Mountain 0 in 4200 ft

Earthquake Activity

City Distance Mag. Time & Date
No recent earthquake activity has been reported nearby.
Minimum magnitude displayed is 2.5.

Coastal Water Temperatures

Place Temperature
Port Townsend, WA 53.1 °F
Seattle, WA 55.0 °F
Friday Harbor, WA 51.1 °F
Tacoma, WA 54.0 °F

Nearby Weather Stations